sensor_id;sensor_type;location;lat;lon;timestamp;temperature;humidity
13848;DHT22;6994;49.752;6.094;2024-02-28T00:02:04;2.60;99.90
13848;DHT22;6994;49.752;6.094;2024-02-28T00:04:31;2.50;99.90
13848;DHT22;6994;49.752;6.094;2024-02-28T00:06:58;2.40;99.90
13848;DHT22;6994;49.752;6.094;2024-02-28T00:09:25;2.30;99.90
13848;DHT22;6994;49.752;6.094;2024-02-28T00:11:53;2.30;99.90
13848;DHT22;6994;49.752;6.094;2024-02-28T00:14:20;2.20;99.90
13848;DHT22;6994;49.752;6.094;2024-02-28T00:16:47;2.20;99.90
13848;DHT22;6994;49.752;6.094;2024-02-28T00:19:14;2.20;99.90
13848;DHT22;6994;49.752;6.094;2024-02-28T00:21:41;2.20;99.90
13848;DHT22;6994;49.752;6.094;2024-02-28T00:24:09;2.30;99.90
13848;DHT22;6994;49.752;6.094;2024-02-28T00:26:39;2.30;99.90
13848;DHT22;6994;49.752;6.094;2024-02-28T00:29:03;2.40;99.90
13848;DHT22;6994;49.752;6.094;2024-02-28T00:31:30;2.50;99.90
13848;DHT22;6994;49.752;6.094;2024-02-28T00:33:58;2.90;99.90
13848;DHT22;6994;49.752;6.094;2024-02-28T00:36:26;3.00;99.90
13848;DHT22;6994;49.752;6.094;2024-02-28T00:38:53;3.00;99.90
13848;DHT22;6994;49.752;6.094;2024-02-28T00:41:21;3.10;99.90
13848;DHT22;6994;49.752;6.094;2024-02-28T00:43:48;3.10;99.90
13848;DHT22;6994;49.752;6.094;2024-02-28T00:46:15;3.20;99.90
13848;DHT22;6994;49.752;6.094;2024-02-28T00:48:42;3.20;99.90
13848;DHT22;6994;49.752;6.094;2024-02-28T00:51:09;3.20;99.90
13848;DHT22;6994;49.752;6.094;2024-02-28T00:53:37;3.30;99.90
13848;DHT22;6994;49.752;6.094;2024-02-28T00:56:04;3.30;99.90
13848;DHT22;6994;49.752;6.094;2024-02-28T00:58:31;3.50;99.90
13848;DHT22;6994;49.752;6.094;2024-02-28T01:00:58;3.60;99.90
13848;DHT22;6994;49.752;6.094;2024-02-28T01:03:25;3.60;99.90
13848;DHT22;6994;49.752;6.094;2024-02-28T01:05:53;3.60;99.90
13848;DHT22;6994;49.752;6.094;2024-02-28T01:08:21;3.60;99.90
13848;DHT22;6994;49.752;6.094;2024-02-28T01:10:49;3.60;99.90
13848;DHT22;6994;49.752;6.094;2024-02-28T01:13:17;3.60;99.90
13848;DHT22;6994;49.752;6.094;2024-02-28T01:15:44;3.60;99.90
13848;DHT22;6994;49.752;6.094;2024-02-28T01:18:11;3.60;99.90
13848;DHT22;6994;49.752;6.094;2024-02-28T01:20:38;3.60;99.90
13848;DHT22;6994;49.752;6.094;2024-02-28T01:23:05;3.60;99.90
13848;DHT22;6994;49.752;6.094;2024-02-28T01:25:33;3.90;99.90
13848;DHT22;6994;49.752;6.094;2024-02-28T01:28:00;4.00;99.90
13848;DHT22;6994;49.752;6.094;2024-02-28T01:30:27;4.00;99.90
13848;DHT22;6994;49.752;6.094;2024-02-28T01:32:54;4.10;99.90
13848;DHT22;6994;49.752;6.094;2024-02-28T01:35:21;4.10;99.90
13848;DHT22;6994;49.752;6.094;2024-02-28T01:37:49;4.20;99.90
13848;DHT22;6994;49.752;6.094;2024-02-28T01:40:16;4.20;99.90
13848;DHT22;6994;49.752;6.094;2024-02-28T01:42:43;4.50;99.90
13848;DHT22;6994;49.752;6.094;2024-02-28T01:45:12;4.60;99.90
13848;DHT22;6994;49.752;6.094;2024-02-28T01:47:38;4.60;99.90
13848;DHT22;6994;49.752;6.094;2024-02-28T01:50:05;4.70;99.90
13848;DHT22;6994;49.752;6.094;2024-02-28T01:52:32;4.60;99.90
13848;DHT22;6994;49.752;6.094;2024-02-28T01:54:59;4.60;99.90
13848;DHT22;6994;49.752;6.094;2024-02-28T01:57:26;4.60;99.90
13848;DHT22;6994;49.752;6.094;2024-02-28T01:59:54;4.70;99.90
13848;DHT22;6994;49.752;6.094;2024-02-28T02:02:21;4.80;99.90
13848;DHT22;6994;49.752;6.094;2024-02-28T02:04:48;4.90;99.90
13848;DHT22;6994;49.752;6.094;2024-02-28T02:07:15;5.10;99.90
13848;DHT22;6994;49.752;6.094;2024-02-28T02:09:42;5.10;99.90
13848;DHT22;6994;49.752;6.094;2024-02-28T02:12:10;5.10;99.90
13848;DHT22;6994;49.752;6.094;2024-02-28T02:14:38;5.10;99.90
13848;DHT22;6994;49.752;6.094;2024-02-28T02:17:05;5.10;99.90
13848;DHT22;6994;49.752;6.094;2024-02-28T02:19:32;5.00;99.90
13848;DHT22;6994;49.752;6.094;2024-02-28T02:21:59;4.90;99.90
13848;DHT22;6994;49.752;6.094;2024-02-28T02:24:26;4.80;99.90
13848;DHT22;6994;49.752;6.094;2024-02-28T02:26:57;4.80;99.90
13848;DHT22;6994;49.752;6.094;2024-02-28T02:29:24;4.70;99.90
13848;DHT22;6994;49.752;6.094;2024-02-28T02:31:51;4.70;99.90
13848;DHT22;6994;49.752;6.094;2024-02-28T02:34:18;4.80;99.90
13848;DHT22;6994;49.752;6.094;2024-02-28T02:36:45;4.90;99.90
13848;DHT22;6994;49.752;6.094;2024-02-28T02:39:13;4.80;99.90
13848;DHT22;6994;49.752;6.094;2024-02-28T02:41:41;4.80;99.90
13848;DHT22;6994;49.752;6.094;2024-02-28T02:44:09;4.80;99.90
13848;DHT22;6994;49.752;6.094;2024-02-28T02:46:37;4.70;99.90
13848;DHT22;6994;49.752;6.094;2024-02-28T02:49:05;4.60;99.90
13848;DHT22;6994;49.752;6.094;2024-02-28T02:51:33;4.60;99.90
13848;DHT22;6994;49.752;6.094;2024-02-28T02:54:00;4.60;99.90
13848;DHT22;6994;49.752;6.094;2024-02-28T02:56:27;4.50;99.90
13848;DHT22;6994;49.752;6.094;2024-02-28T02:58:55;4.50;99.90
13848;DHT22;6994;49.752;6.094;2024-02-28T03:01:22;4.50;99.90
13848;DHT22;6994;49.752;6.094;2024-02-28T03:03:49;4.40;99.90
13848;DHT22;6994;49.752;6.094;2024-02-28T03:06:16;4.60;99.90
13848;DHT22;6994;49.752;6.094;2024-02-28T03:08:44;4.70;99.90
13848;DHT22;6994;49.752;6.094;2024-02-28T03:11:11;4.70;99.90
13848;DHT22;6994;49.752;6.094;2024-02-28T03:13:38;4.70;99.90
13848;DHT22;6994;49.752;6.094;2024-02-28T03:16:06;4.60;99.90
13848;DHT22;6994;49.752;6.094;2024-02-28T03:18:33;4.60;99.90
13848;DHT22;6994;49.752;6.094;2024-02-28T03:21:00;4.60;99.90
13848;DHT22;6994;49.752;6.094;2024-02-28T03:23:28;4.50;99.90
13848;DHT22;6994;49.752;6.094;2024-02-28T03:25:55;4.70;99.90
13848;DHT22;6994;49.752;6.094;2024-02-28T03:28:22;4.70;99.90
13848;DHT22;6994;49.752;6.094;2024-02-28T03:30:50;4.80;99.90
13848;DHT22;6994;49.752;6.094;2024-02-28T03:33:17;4.80;99.90
13848;DHT22;6994;49.752;6.094;2024-02-28T03:35:44;4.80;99.90
13848;DHT22;6994;49.752;6.094;2024-02-28T03:38:12;4.70;99.90
13848;DHT22;6994;49.752;6.094;2024-02-28T03:40:39;4.50;99.90
13848;DHT22;6994;49.752;6.094;2024-02-28T03:43:06;4.40;99.90
13848;DHT22;6994;49.752;6.094;2024-02-28T03:45:36;4.40;99.90
13848;DHT22;6994;49.752;6.094;2024-02-28T03:48:00;4.30;99.90
13848;DHT22;6994;49.752;6.094;2024-02-28T03:50:28;4.30;99.90
13848;DHT22;6994;49.752;6.094;2024-02-28T03:52:55;4.30;99.90
13848;DHT22;6994;49.752;6.094;2024-02-28T03:55:22;4.40;99.90
13848;DHT22;6994;49.752;6.094;2024-02-28T03:57:49;4.40;99.90
13848;DHT22;6994;49.752;6.094;2024-02-28T04:00:16;4.40;99.90
13848;DHT22;6994;49.752;6.094;2024-02-28T04:02:44;4.30;99.90
13848;DHT22;6994;49.752;6.094;2024-02-28T04:05:11;4.30;99.90
13848;DHT22;6994;49.752;6.094;2024-02-28T04:07:38;4.20;99.90
13848;DHT22;6994;49.752;6.094;2024-02-28T04:10:06;4.10;99.90
13848;DHT22;6994;49.752;6.094;2024-02-28T04:12:34;4.10;99.90
13848;DHT22;6994;49.752;6.094;2024-02-28T04:15:01;4.10;99.90
13848;DHT22;6994;49.752;6.094;2024-02-28T04:17:28;4.10;99.90
13848;DHT22;6994;49.752;6.094;2024-02-28T04:19:55;4.10;99.90
13848;DHT22;6994;49.752;6.094;2024-02-28T04:22:22;4.00;99.90
13848;DHT22;6994;49.752;6.094;2024-02-28T04:24:50;4.10;99.90
13848;DHT22;6994;49.752;6.094;2024-02-28T04:27:17;4.20;99.90
13848;DHT22;6994;49.752;6.094;2024-02-28T04:29:45;4.30;99.90
13848;DHT22;6994;49.752;6.094;2024-02-28T04:32:12;4.30;99.90
13848;DHT22;6994;49.752;6.094;2024-02-28T04:34:39;4.20;99.90
13848;DHT22;6994;49.752;6.094;2024-02-28T04:37:06;4.20;99.90
13848;DHT22;6994;49.752;6.094;2024-02-28T04:39:34;4.10;99.90
13848;DHT22;6994;49.752;6.094;2024-02-28T04:42:01;4.10;99.90
13848;DHT22;6994;49.752;6.094;2024-02-28T04:44:28;4.10;99.90
13848;DHT22;6994;49.752;6.094;2024-02-28T04:46:55;4.00;99.90
13848;DHT22;6994;49.752;6.094;2024-02-28T04:49:22;4.20;99.90
13848;DHT22;6994;49.752;6.094;2024-02-28T04:51:50;4.20;99.90
13848;DHT22;6994;49.752;6.094;2024-02-28T04:54:17;4.20;99.90
13848;DHT22;6994;49.752;6.094;2024-02-28T04:56:44;4.10;99.90
13848;DHT22;6994;49.752;6.094;2024-02-28T04:59:11;4.00;99.90
13848;DHT22;6994;49.752;6.094;2024-02-28T05:01:39;4.00;99.90
13848;DHT22;6994;49.752;6.094;2024-02-28T05:04:12;3.90;99.90
13848;DHT22;6994;49.752;6.094;2024-02-28T05:06:39;4.00;99.90
13848;DHT22;6994;49.752;6.094;2024-02-28T05:09:06;4.10;99.90
13848;DHT22;6994;49.752;6.094;2024-02-28T05:11:33;4.10;99.90
13848;DHT22;6994;49.752;6.094;2024-02-28T05:14:00;4.00;99.90
13848;DHT22;6994;49.752;6.094;2024-02-28T05:16:28;4.00;99.90
13848;DHT22;6994;49.752;6.094;2024-02-28T05:18:55;3.90;99.90
13848;DHT22;6994;49.752;6.094;2024-02-28T05:21:23;3.80;99.90
13848;DHT22;6994;49.752;6.094;2024-02-28T05:23:51;3.80;99.90
13848;DHT22;6994;49.752;6.094;2024-02-28T05:26:19;3.80;99.90
13848;DHT22;6994;49.752;6.094;2024-02-28T05:28:47;3.80;99.90
13848;DHT22;6994;49.752;6.094;2024-02-28T05:31:21;3.80;99.90
13848;DHT22;6994;49.752;6.094;2024-02-28T05:33:49;3.70;99.90
13848;DHT22;6994;49.752;6.094;2024-02-28T05:36:15;3.70;99.90
13848;DHT22;6994;49.752;6.094;2024-02-28T05:38:42;3.70;99.90
13848;DHT22;6994;49.752;6.094;2024-02-28T05:41:09;3.70;99.90
13848;DHT22;6994;49.752;6.094;2024-02-28T05:43:37;3.70;99.90
13848;DHT22;6994;49.752;6.094;2024-02-28T05:46:04;3.70;99.90
13848;DHT22;6994;49.752;6.094;2024-02-28T05:48:31;3.70;99.90
13848;DHT22;6994;49.752;6.094;2024-02-28T05:51:00;3.70;99.90
13848;DHT22;6994;49.752;6.094;2024-02-28T05:53:25;3.80;99.90
13848;DHT22;6994;49.752;6.094;2024-02-28T05:55:53;3.90;99.90
13848;DHT22;6994;49.752;6.094;2024-02-28T05:58:23;3.90;99.90
13848;DHT22;6994;49.752;6.094;2024-02-28T06:00:50;3.90;99.90
13848;DHT22;6994;49.752;6.094;2024-02-28T06:03:17;3.80;99.90
13848;DHT22;6994;49.752;6.094;2024-02-28T06:05:44;3.80;99.90
13848;DHT22;6994;49.752;6.094;2024-02-28T06:08:11;3.70;99.90
13848;DHT22;6994;49.752;6.094;2024-02-28T06:10:39;3.70;99.90
13848;DHT22;6994;49.752;6.094;2024-02-28T06:13:06;3.60;99.90
13848;DHT22;6994;49.752;6.094;2024-02-28T06:15:33;3.60;99.90
13848;DHT22;6994;49.752;6.094;2024-02-28T06:18:00;3.60;99.90
13848;DHT22;6994;49.752;6.094;2024-02-28T06:20:27;3.80;99.90
13848;DHT22;6994;49.752;6.094;2024-02-28T06:22:55;3.90;99.90
13848;DHT22;6994;49.752;6.094;2024-02-28T06:25:22;3.90;99.90
13848;DHT22;6994;49.752;6.094;2024-02-28T06:27:49;3.90;99.90
13848;DHT22;6994;49.752;6.094;2024-02-28T06:30:16;3.80;99.90
13848;DHT22;6994;49.752;6.094;2024-02-28T06:32:46;3.80;99.90
13848;DHT22;6994;49.752;6.094;2024-02-28T06:35:14;3.70;99.90
13848;DHT22;6994;49.752;6.094;2024-02-28T06:37:41;3.70;99.90
13848;DHT22;6994;49.752;6.094;2024-02-28T06:40:08;3.80;99.90
13848;DHT22;6994;49.752;6.094;2024-02-28T06:42:35;3.90;99.90
13848;DHT22;6994;49.752;6.094;2024-02-28T06:45:03;3.80;99.90
13848;DHT22;6994;49.752;6.094;2024-02-28T06:47:31;3.80;99.90
13848;DHT22;6994;49.752;6.094;2024-02-28T06:49:59;3.70;99.90
13848;DHT22;6994;49.752;6.094;2024-02-28T06:52:27;3.70;99.90
13848;DHT22;6994;49.752;6.094;2024-02-28T06:54:54;3.60;99.90
13848;DHT22;6994;49.752;6.094;2024-02-28T06:57:21;3.60;99.90
13848;DHT22;6994;49.752;6.094;2024-02-28T06:59:48;3.60;99.90
13848;DHT22;6994;49.752;6.094;2024-02-28T07:02:15;3.60;99.90
13848;DHT22;6994;49.752;6.094;2024-02-28T07:04:43;3.50;99.90
13848;DHT22;6994;49.752;6.094;2024-02-28T07:07:10;3.70;99.90
13848;DHT22;6994;49.752;6.094;2024-02-28T07:09:40;3.70;99.90
13848;DHT22;6994;49.752;6.094;2024-02-28T07:12:07;3.70;99.90
13848;DHT22;6994;49.752;6.094;2024-02-28T07:14:34;3.60;99.90
13848;DHT22;6994;49.752;6.094;2024-02-28T07:17:02;3.60;99.90
13848;DHT22;6994;49.752;6.094;2024-02-28T07:19:29;3.50;99.90
13848;DHT22;6994;49.752;6.094;2024-02-28T07:21:56;3.50;99.90
13848;DHT22;6994;49.752;6.094;2024-02-28T07:24:23;3.70;99.90
13848;DHT22;6994;49.752;6.094;2024-02-28T07:26:50;3.70;99.90
13848;DHT22;6994;49.752;6.094;2024-02-28T07:29:18;4.00;99.90
13848;DHT22;6994;49.752;6.094;2024-02-28T07:31:45;4.00;99.90
13848;DHT22;6994;49.752;6.094;2024-02-28T07:34:12;4.20;99.90
13848;DHT22;6994;49.752;6.094;2024-02-28T07:36:39;4.20;99.90
13848;DHT22;6994;49.752;6.094;2024-02-28T07:39:07;4.10;99.90
13848;DHT22;6994;49.752;6.094;2024-02-28T07:41:34;4.10;99.90
13848;DHT22;6994;49.752;6.094;2024-02-28T07:44:02;4.00;99.90
13848;DHT22;6994;49.752;6.094;2024-02-28T07:46:30;4.00;99.90
13848;DHT22;6994;49.752;6.094;2024-02-28T07:48:58;3.90;99.90
13848;DHT22;6994;49.752;6.094;2024-02-28T07:51:26;3.90;99.90
13848;DHT22;6994;49.752;6.094;2024-02-28T07:53:53;3.80;99.90
13848;DHT22;6994;49.752;6.094;2024-02-28T07:56:21;3.80;99.90
13848;DHT22;6994;49.752;6.094;2024-02-28T07:58:49;3.80;99.90
13848;DHT22;6994;49.752;6.094;2024-02-28T08:01:16;3.80;99.90
13848;DHT22;6994;49.752;6.094;2024-02-28T08:03:43;3.80;99.90
13848;DHT22;6994;49.752;6.094;2024-02-28T08:06:10;3.80;99.90
13848;DHT22;6994;49.752;6.094;2024-02-28T08:08:37;3.80;99.90
13848;DHT22;6994;49.752;6.094;2024-02-28T08:11:05;3.80;99.90
13848;DHT22;6994;49.752;6.094;2024-02-28T08:13:32;3.80;99.90
13848;DHT22;6994;49.752;6.094;2024-02-28T08:15:59;4.00;99.90
13848;DHT22;6994;49.752;6.094;2024-02-28T08:18:26;4.00;99.90
13848;DHT22;6994;49.752;6.094;2024-02-28T08:20:53;4.10;99.90
13848;DHT22;6994;49.752;6.094;2024-02-28T08:23:21;4.10;99.90
13848;DHT22;6994;49.752;6.094;2024-02-28T08:25:49;4.20;99.90
13848;DHT22;6994;49.752;6.094;2024-02-28T08:28:17;4.30;99.90
13848;DHT22;6994;49.752;6.094;2024-02-28T08:30:45;4.40;99.90
13848;DHT22;6994;49.752;6.094;2024-02-28T08:33:13;4.40;99.90
13848;DHT22;6994;49.752;6.094;2024-02-28T08:35:41;4.40;99.90
13848;DHT22;6994;49.752;6.094;2024-02-28T08:38:08;4.40;99.90
13848;DHT22;6994;49.752;6.094;2024-02-28T08:40:35;4.40;99.90
13848;DHT22;6994;49.752;6.094;2024-02-28T08:43:02;4.50;99.90
13848;DHT22;6994;49.752;6.094;2024-02-28T08:45:29;4.60;99.90
13848;DHT22;6994;49.752;6.094;2024-02-28T08:47:57;4.60;99.90
13848;DHT22;6994;49.752;6.094;2024-02-28T08:50:24;4.50;99.90
13848;DHT22;6994;49.752;6.094;2024-02-28T08:52:51;4.50;99.90
13848;DHT22;6994;49.752;6.094;2024-02-28T08:55:18;4.40;99.90
13848;DHT22;6994;49.752;6.094;2024-02-28T08:57:45;4.50;99.90
13848;DHT22;6994;49.752;6.094;2024-02-28T09:00:13;4.50;99.90
13848;DHT22;6994;49.752;6.094;2024-02-28T09:02:40;4.50;99.90
13848;DHT22;6994;49.752;6.094;2024-02-28T09:05:07;4.50;99.90
13848;DHT22;6994;49.752;6.094;2024-02-28T09:07:35;4.50;99.90
13848;DHT22;6994;49.752;6.094;2024-02-28T09:10:05;4.50;99.90
13848;DHT22;6994;49.752;6.094;2024-02-28T09:12:33;4.50;99.90
13848;DHT22;6994;49.752;6.094;2024-02-28T09:15:00;4.60;99.90
13848;DHT22;6994;49.752;6.094;2024-02-28T09:17:27;4.80;99.90
13848;DHT22;6994;49.752;6.094;2024-02-28T09:19:54;4.90;99.90
13848;DHT22;6994;49.752;6.094;2024-02-28T09:22:22;5.00;99.90
13848;DHT22;6994;49.752;6.094;2024-02-28T09:24:49;5.00;99.90
13848;DHT22;6994;49.752;6.094;2024-02-28T09:27:17;5.00;99.90
13848;DHT22;6994;49.752;6.094;2024-02-28T09:29:44;4.90;99.90
13848;DHT22;6994;49.752;6.094;2024-02-28T09:32:11;4.90;99.90
13848;DHT22;6994;49.752;6.094;2024-02-28T09:34:38;5.00;99.90
13848;DHT22;6994;49.752;6.094;2024-02-28T09:37:06;5.00;99.90
13848;DHT22;6994;49.752;6.094;2024-02-28T09:39:33;5.10;99.90
13848;DHT22;6994;49.752;6.094;2024-02-28T09:42:00;5.10;99.90
13848;DHT22;6994;49.752;6.094;2024-02-28T09:44:27;5.10;99.90
13848;DHT22;6994;49.752;6.094;2024-02-28T09:46:54;5.20;99.90
13848;DHT22;6994;49.752;6.094;2024-02-28T09:49:21;5.50;99.90
13848;DHT22;6994;49.752;6.094;2024-02-28T09:51:49;5.70;99.90
13848;DHT22;6994;49.752;6.094;2024-02-28T09:54:16;5.90;99.90
13848;DHT22;6994;49.752;6.094;2024-02-28T09:56:43;6.00;99.90
13848;DHT22;6994;49.752;6.094;2024-02-28T09:59:10;6.10;99.90
13848;DHT22;6994;49.752;6.094;2024-02-28T10:01:41;6.20;99.90
13848;DHT22;6994;49.752;6.094;2024-02-28T10:04:05;6.30;99.90
13848;DHT22;6994;49.752;6.094;2024-02-28T10:06:32;6.40;99.90
13848;DHT22;6994;49.752;6.094;2024-02-28T10:08:59;6.60;99.90
13848;DHT22;6994;49.752;6.094;2024-02-28T10:11:26;6.60;99.90
13848;DHT22;6994;49.752;6.094;2024-02-28T10:13:54;6.50;99.90
13848;DHT22;6994;49.752;6.094;2024-02-28T10:16:22;6.60;99.90
13848;DHT22;6994;49.752;6.094;2024-02-28T10:18:49;6.50;99.90
13848;DHT22;6994;49.752;6.094;2024-02-28T10:21:17;6.60;99.90
13848;DHT22;6994;49.752;6.094;2024-02-28T10:23:44;6.60;99.90
13848;DHT22;6994;49.752;6.094;2024-02-28T10:26:11;7.00;99.90
13848;DHT22;6994;49.752;6.094;2024-02-28T10:28:39;7.10;99.90
13848;DHT22;6994;49.752;6.094;2024-02-28T10:31:06;7.00;99.90
13848;DHT22;6994;49.752;6.094;2024-02-28T10:33:33;6.90;99.90
13848;DHT22;6994;49.752;6.094;2024-02-28T10:36:00;7.30;99.90
13848;DHT22;6994;49.752;6.094;2024-02-28T10:38:27;7.40;99.90
13848;DHT22;6994;49.752;6.094;2024-02-28T10:40:54;7.40;99.90
13848;DHT22;6994;49.752;6.094;2024-02-28T10:43:21;7.60;99.90
13848;DHT22;6994;49.752;6.094;2024-02-28T10:45:49;7.90;99.90
13848;DHT22;6994;49.752;6.094;2024-02-28T10:48:17;8.10;99.90
13848;DHT22;6994;49.752;6.094;2024-02-28T10:50:45;8.10;99.90
13848;DHT22;6994;49.752;6.094;2024-02-28T10:53:13;8.10;99.90
13848;DHT22;6994;49.752;6.094;2024-02-28T10:55:42;8.10;99.90
13848;DHT22;6994;49.752;6.094;2024-02-28T10:58:12;8.50;99.90
13848;DHT22;6994;49.752;6.094;2024-02-28T11:00:39;8.70;99.90
13848;DHT22;6994;49.752;6.094;2024-02-28T11:03:07;9.20;99.90
13848;DHT22;6994;49.752;6.094;2024-02-28T11:05:38;9.20;99.90
13848;DHT22;6994;49.752;6.094;2024-02-28T11:08:05;9.20;99.90
13848;DHT22;6994;49.752;6.094;2024-02-28T11:10:32;9.00;99.90
13848;DHT22;6994;49.752;6.094;2024-02-28T11:13:01;8.90;99.90
13848;DHT22;6994;49.752;6.094;2024-02-28T11:15:29;8.70;99.90
13848;DHT22;6994;49.752;6.094;2024-02-28T11:18:06;8.70;99.90
13848;DHT22;6994;49.752;6.094;2024-02-28T11:20:31;8.60;99.90
13848;DHT22;6994;49.752;6.094;2024-02-28T11:22:56;8.80;99.90
13848;DHT22;6994;49.752;6.094;2024-02-28T11:25:17;8.90;99.90
13848;DHT22;6994;49.752;6.094;2024-02-28T11:27:48;9.00;99.90
13848;DHT22;6994;49.752;6.094;2024-02-28T11:30:15;8.90;99.90
13848;DHT22;6994;49.752;6.094;2024-02-28T11:32:42;9.00;99.90
13848;DHT22;6994;49.752;6.094;2024-02-28T11:35:10;9.20;99.90
13848;DHT22;6994;49.752;6.094;2024-02-28T11:37:37;9.60;99.90
13848;DHT22;6994;49.752;6.094;2024-02-28T11:40:08;10.10;99.90
13848;DHT22;6994;49.752;6.094;2024-02-28T11:42:31;10.80;99.90
13848;DHT22;6994;49.752;6.094;2024-02-28T11:44:59;11.40;99.90
13848;DHT22;6994;49.752;6.094;2024-02-28T11:47:26;12.10;99.90
13848;DHT22;6994;49.752;6.094;2024-02-28T11:49:53;12.60;99.90
13848;DHT22;6994;49.752;6.094;2024-02-28T11:52:20;13.10;99.90
13848;DHT22;6994;49.752;6.094;2024-02-28T11:54:48;13.50;99.90
13848;DHT22;6994;49.752;6.094;2024-02-28T11:57:15;13.90;99.90
13848;DHT22;6994;49.752;6.094;2024-02-28T11:59:43;14.10;99.90
13848;DHT22;6994;49.752;6.094;2024-02-28T12:02:13;14.70;99.90
13848;DHT22;6994;49.752;6.094;2024-02-28T12:04:41;14.70;99.90
13848;DHT22;6994;49.752;6.094;2024-02-28T12:07:11;14.80;99.90
13848;DHT22;6994;49.752;6.094;2024-02-28T12:09:34;15.10;99.90
13848;DHT22;6994;49.752;6.094;2024-02-28T12:12:02;15.30;99.90
13848;DHT22;6994;49.752;6.094;2024-02-28T12:14:32;15.40;99.90
13848;DHT22;6994;49.752;6.094;2024-02-28T12:16:59;15.60;99.90
13848;DHT22;6994;49.752;6.094;2024-02-28T12:19:26;15.80;99.90
13848;DHT22;6994;49.752;6.094;2024-02-28T12:21:53;16.10;99.90
13848;DHT22;6994;49.752;6.094;2024-02-28T12:24:20;16.90;99.90
13848;DHT22;6994;49.752;6.094;2024-02-28T12:26:48;17.00;99.90
13848;DHT22;6994;49.752;6.094;2024-02-28T12:29:16;17.00;99.90
13848;DHT22;6994;49.752;6.094;2024-02-28T12:31:43;16.90;99.90
13848;DHT22;6994;49.752;6.094;2024-02-28T12:34:10;17.00;99.90
13848;DHT22;6994;49.752;6.094;2024-02-28T12:36:37;17.00;99.90
13848;DHT22;6994;49.752;6.094;2024-02-28T12:39:04;17.00;99.90
13848;DHT22;6994;49.752;6.094;2024-02-28T12:41:32;17.00;99.90
13848;DHT22;6994;49.752;6.094;2024-02-28T12:44:00;17.00;99.90
13848;DHT22;6994;49.752;6.094;2024-02-28T12:46:28;17.00;99.90
13848;DHT22;6994;49.752;6.094;2024-02-28T12:48:56;17.10;99.90
13848;DHT22;6994;49.752;6.094;2024-02-28T12:51:42;17.10;99.90
13848;DHT22;6994;49.752;6.094;2024-02-28T12:54:08;17.10;99.90
13848;DHT22;6994;49.752;6.094;2024-02-28T12:56:36;17.10;99.90
13848;DHT22;6994;49.752;6.094;2024-02-28T12:59:05;17.10;99.90
13848;DHT22;6994;49.752;6.094;2024-02-28T13:01:31;17.10;99.90
13848;DHT22;6994;49.752;6.094;2024-02-28T13:03:59;17.20;99.90
13848;DHT22;6994;49.752;6.094;2024-02-28T13:06:26;17.10;99.90
13848;DHT22;6994;49.752;6.094;2024-02-28T13:08:53;17.60;99.90
13848;DHT22;6994;49.752;6.094;2024-02-28T13:11:21;17.60;99.90
13848;DHT22;6994;49.752;6.094;2024-02-28T13:13:48;17.20;99.90
13848;DHT22;6994;49.752;6.094;2024-02-28T13:16:17;17.10;99.90
13848;DHT22;6994;49.752;6.094;2024-02-28T13:18:44;17.10;99.90
13848;DHT22;6994;49.752;6.094;2024-02-28T13:21:11;17.20;99.90
13848;DHT22;6994;49.752;6.094;2024-02-28T13:23:38;17.10;99.90
13848;DHT22;6994;49.752;6.094;2024-02-28T13:26:05;17.60;99.50
13848;DHT22;6994;49.752;6.094;2024-02-28T13:28:35;17.50;99.40
13848;DHT22;6994;49.752;6.094;2024-02-28T13:31:02;17.40;99.70
13848;DHT22;6994;49.752;6.094;2024-02-28T13:33:29;17.50;99.90
13848;DHT22;6994;49.752;6.094;2024-02-28T13:35:56;17.70;99.90
13848;DHT22;6994;49.752;6.094;2024-02-28T13:38:24;18.00;99.80
13848;DHT22;6994;49.752;6.094;2024-02-28T13:40:51;18.40;99.30
13848;DHT22;6994;49.752;6.094;2024-02-28T13:43:18;18.80;99.30
13848;DHT22;6994;49.752;6.094;2024-02-28T13:45:48;19.10;98.70
13848;DHT22;6994;49.752;6.094;2024-02-28T13:48:16;19.30;97.40
13848;DHT22;6994;49.752;6.094;2024-02-28T13:50:43;19.40;96.10
13848;DHT22;6994;49.752;6.094;2024-02-28T13:53:10;20.00;95.40
13848;DHT22;6994;49.752;6.094;2024-02-28T13:55:37;20.00;95.40
13848;DHT22;6994;49.752;6.094;2024-02-28T13:58:04;19.90;95.70
13848;DHT22;6994;49.752;6.094;2024-02-28T14:00:31;19.80;96.00
13848;DHT22;6994;49.752;6.094;2024-02-28T14:02:59;20.00;95.90
13848;DHT22;6994;49.752;6.094;2024-02-28T14:05:28;20.20;96.20
13848;DHT22;6994;49.752;6.094;2024-02-28T14:07:55;20.20;95.80
13848;DHT22;6994;49.752;6.094;2024-02-28T14:10:23;20.20;95.80
13848;DHT22;6994;49.752;6.094;2024-02-28T14:12:49;20.20;95.60
13848;DHT22;6994;49.752;6.094;2024-02-28T14:15:17;19.90;95.40
13848;DHT22;6994;49.752;6.094;2024-02-28T14:17:44;20.40;94.60
13848;DHT22;6994;49.752;6.094;2024-02-28T14:20:11;20.30;95.20
13848;DHT22;6994;49.752;6.094;2024-02-28T14:22:38;20.10;95.20
13848;DHT22;6994;49.752;6.094;2024-02-28T14:25:06;19.90;95.50
13848;DHT22;6994;49.752;6.094;2024-02-28T14:27:33;19.90;95.60
13848;DHT22;6994;49.752;6.094;2024-02-28T14:30:00;20.30;94.70
13848;DHT22;6994;49.752;6.094;2024-02-28T14:32:27;20.10;94.80
13848;DHT22;6994;49.752;6.094;2024-02-28T14:34:54;19.70;95.00
13848;DHT22;6994;49.752;6.094;2024-02-28T14:37:22;19.40;95.70
13848;DHT22;6994;49.752;6.094;2024-02-28T14:39:49;19.10;95.80
13848;DHT22;6994;49.752;6.094;2024-02-28T14:42:16;18.60;95.90
13848;DHT22;6994;49.752;6.094;2024-02-28T14:44:43;18.20;96.50
13848;DHT22;6994;49.752;6.094;2024-02-28T14:47:10;17.70;97.00
13848;DHT22;6994;49.752;6.094;2024-02-28T14:49:38;17.30;96.10
13848;DHT22;6994;49.752;6.094;2024-02-28T14:52:05;17.00;95.80
13848;DHT22;6994;49.752;6.094;2024-02-28T14:54:32;16.70;95.00
13848;DHT22;6994;49.752;6.094;2024-02-28T14:57:00;16.00;95.00
13848;DHT22;6994;49.752;6.094;2024-02-28T14:59:27;16.00;95.00
13848;DHT22;6994;49.752;6.094;2024-02-28T15:01:55;15.60;95.30
13848;DHT22;6994;49.752;6.094;2024-02-28T15:04:22;14.90;96.00
13848;DHT22;6994;49.752;6.094;2024-02-28T15:06:50;14.90;95.60
13848;DHT22;6994;49.752;6.094;2024-02-28T15:09:17;14.50;95.80
13848;DHT22;6994;49.752;6.094;2024-02-28T15:11:44;14.10;96.20
13848;DHT22;6994;49.752;6.094;2024-02-28T15:14:11;14.10;96.60
13848;DHT22;6994;49.752;6.094;2024-02-28T15:16:39;13.80;96.80
13848;DHT22;6994;49.752;6.094;2024-02-28T15:19:06;13.60;97.10
13848;DHT22;6994;49.752;6.094;2024-02-28T15:21:33;13.40;97.30
13848;DHT22;6994;49.752;6.094;2024-02-28T15:24:01;12.90;98.40
13848;DHT22;6994;49.752;6.094;2024-02-28T15:26:29;12.80;99.00
13848;DHT22;6994;49.752;6.094;2024-02-28T15:28:57;12.60;99.30
13848;DHT22;6994;49.752;6.094;2024-02-28T15:31:25;12.50;99.20
13848;DHT22;6994;49.752;6.094;2024-02-28T15:33:52;12.50;99.10
13848;DHT22;6994;49.752;6.094;2024-02-28T15:36:19;12.30;99.60
13848;DHT22;6994;49.752;6.094;2024-02-28T15:38:47;12.30;99.90
13848;DHT22;6994;49.752;6.094;2024-02-28T15:41:14;12.20;99.90
13848;DHT22;6994;49.752;6.094;2024-02-28T15:43:42;12.30;99.90
13848;DHT22;6994;49.752;6.094;2024-02-28T15:46:09;12.20;99.90
13848;DHT22;6994;49.752;6.094;2024-02-28T15:48:36;12.00;99.90
13848;DHT22;6994;49.752;6.094;2024-02-28T15:51:03;11.90;99.90
13848;DHT22;6994;49.752;6.094;2024-02-28T15:53:30;11.90;99.90
13848;DHT22;6994;49.752;6.094;2024-02-28T15:55:58;12.00;99.90
13848;DHT22;6994;49.752;6.094;2024-02-28T15:58:26;12.10;99.90